sensor_id;sensor_type;location;lat;lon;timestamp;pressure;altitude;pressure_sealevel;temperature;humidity
73824;BME280;62154;54.914;73.444;2023-11-19T00:00:14;99471.00;;;-6.82;100.00
73824;BME280;62154;54.914;73.444;2023-11-19T00:02:42;99504.25;;;-6.93;100.00
73824;BME280;62154;54.914;73.444;2023-11-19T00:05:10;99445.13;;;-7.27;100.00
73824;BME280;62154;54.914;73.444;2023-11-19T00:07:41;99477.22;;;-7.24;100.00
73824;BME280;62154;54.914;73.444;2023-11-19T00:10:13;99494.47;;;-7.27;100.00
73824;BME280;62154;54.914;73.444;2023-11-19T00:12:43;99551.34;;;-7.09;100.00
73824;BME280;62154;54.914;73.444;2023-11-19T00:15:11;99537.28;;;-7.12;100.00
73824;BME280;62154;54.914;73.444;2023-11-19T00:17:42;99551.84;;;-7.15;100.00
73824;BME280;62154;54.914;73.444;2023-11-19T00:20:18;99575.75;;;-7.22;100.00
73824;BME280;62154;54.914;73.444;2023-11-19T00:22:46;99528.56;;;-7.48;100.00
73824;BME280;62154;54.914;73.444;2023-11-19T00:25:15;99596.44;;;-7.33;100.00
73824;BME280;62154;54.914;73.444;2023-11-19T00:27:43;99571.50;;;-7.47;100.00
73824;BME280;62154;54.914;73.444;2023-11-19T00:30:14;99579.47;;;-7.57;100.00
73824;BME280;62154;54.914;73.444;2023-11-19T00:32:42;99596.97;;;-7.51;100.00
73824;BME280;62154;54.914;73.444;2023-11-19T00:35:10;99607.28;;;-7.56;100.00
73824;BME280;62154;54.914;73.444;2023-11-19T00:37:39;99622.41;;;-7.55;100.00
73824;BME280;62154;54.914;73.444;2023-11-19T00:40:07;99627.09;;;-7.57;100.00
73824;BME280;62154;54.914;73.444;2023-11-19T00:42:35;99594.38;;;-7.87;100.00
73824;BME280;62154;54.914;73.444;2023-11-19T00:45:03;99614.84;;;-7.84;100.00
73824;BME280;62154;54.914;73.444;2023-11-19T00:47:32;99669.91;;;-7.54;100.00
73824;BME280;62154;54.914;73.444;2023-11-19T00:49:59;99674.03;;;-7.61;100.00
73824;BME280;62154;54.914;73.444;2023-11-19T00:52:27;99692.06;;;-7.62;100.00
73824;BME280;62154;54.914;73.444;2023-11-19T00:54:54;99705.13;;;-7.68;100.00
73824;BME280;62154;54.914;73.444;2023-11-19T00:57:23;99670.31;;;-8.06;100.00
73824;BME280;62154;54.914;73.444;2023-11-19T00:59:51;99714.66;;;-7.76;100.00
73824;BME280;62154;54.914;73.444;2023-11-19T01:02:21;99758.94;;;-7.80;100.00
73824;BME280;62154;54.914;73.444;2023-11-19T01:04:49;99755.97;;;-7.88;100.00
73824;BME280;62154;54.914;73.444;2023-11-19T01:07:17;99712.81;;;-8.22;100.00
73824;BME280;62154;54.914;73.444;2023-11-19T01:09:44;99774.88;;;-8.01;100.00
73824;BME280;62154;54.914;73.444;2023-11-19T01:12:12;99741.47;;;-8.34;100.00
73824;BME280;62154;54.914;73.444;2023-11-19T01:14:39;99795.38;;;-8.11;100.00
73824;BME280;62154;54.914;73.444;2023-11-19T01:17:07;99799.28;;;-8.15;100.00
73824;BME280;62154;54.914;73.444;2023-11-19T01:19:35;99820.28;;;-8.21;100.00
73824;BME280;62154;54.914;73.444;2023-11-19T01:22:03;99768.66;;;-8.50;100.00
73824;BME280;62154;54.914;73.444;2023-11-19T01:24:31;99818.38;;;-8.31;100.00
73824;BME280;62154;54.914;73.444;2023-11-19T01:26:58;99822.78;;;-8.30;100.00
73824;BME280;62154;54.914;73.444;2023-11-19T01:29:27;99857.09;;;-8.34;100.00
73824;BME280;62154;54.914;73.444;2023-11-19T01:31:54;99837.25;;;-8.44;100.00
73824;BME280;62154;54.914;73.444;2023-11-19T01:34:21;99850.56;;;-8.43;100.00
73824;BME280;62154;54.914;73.444;2023-11-19T01:36:49;99866.19;;;-8.48;100.00
73824;BME280;62154;54.914;73.444;2023-11-19T01:39:16;99867.41;;;-8.52;100.00
73824;BME280;62154;54.914;73.444;2023-11-19T01:41:44;99890.84;;;-8.54;100.00
73824;BME280;62154;54.914;73.444;2023-11-19T01:44:15;99920.63;;;-8.57;100.00
73824;BME280;62154;54.914;73.444;2023-11-19T01:46:45;99842.41;;;-8.91;100.00
73824;BME280;62154;54.914;73.444;2023-11-19T01:49:16;99861.22;;;-8.91;100.00
73824;BME280;62154;54.914;73.444;2023-11-19T01:51:45;99920.72;;;-8.72;100.00
73824;BME280;62154;54.914;73.444;2023-11-19T01:54:14;99916.22;;;-8.71;100.00
73824;BME280;62154;54.914;73.444;2023-11-19T01:56:42;99872.94;;;-9.05;100.00
73824;BME280;62154;54.914;73.444;2023-11-19T01:59:11;99909.56;;;-8.91;100.00
73824;BME280;62154;54.914;73.444;2023-11-19T02:01:41;99946.53;;;-8.82;100.00
73824;BME280;62154;54.914;73.444;2023-11-19T02:04:09;99886.13;;;-9.15;100.00
73824;BME280;62154;54.914;73.444;2023-11-19T02:06:40;99907.41;;;-9.12;100.00
73824;BME280;62154;54.914;73.444;2023-11-19T02:09:08;99956.97;;;-8.90;100.00
73824;BME280;62154;54.914;73.444;2023-11-19T02:11:36;99978.53;;;-8.92;100.00
73824;BME280;62154;54.914;73.444;2023-11-19T02:14:03;99969.19;;;-8.99;100.00
73824;BME280;62154;54.914;73.444;2023-11-19T02:16:32;99985.09;;;-8.96;100.00
73824;BME280;62154;54.914;73.444;2023-11-19T02:18:59;99990.56;;;-8.97;100.00
73824;BME280;62154;54.914;73.444;2023-11-19T02:21:46;100004.13;;;-8.99;100.00
73824;BME280;62154;54.914;73.444;2023-11-19T02:24:14;100002.81;;;-9.06;100.00
73824;BME280;62154;54.914;73.444;2023-11-19T02:26:53;100025.78;;;-9.02;100.00
73824;BME280;62154;54.914;73.444;2023-11-19T02:29:23;100022.38;;;-9.04;100.00
73824;BME280;62154;54.914;73.444;2023-11-19T02:31:50;100024.94;;;-9.03;100.00
73824;BME280;62154;54.914;73.444;2023-11-19T02:34:18;99984.03;;;-9.34;100.00
73824;BME280;62154;54.914;73.444;2023-11-19T02:36:45;100035.88;;;-9.06;100.00
73824;BME280;62154;54.914;73.444;2023-11-19T02:39:14;100033.06;;;-9.17;100.00
73824;BME280;62154;54.914;73.444;2023-11-19T02:41:41;100014.84;;;-9.39;100.00
73824;BME280;62154;54.914;73.444;2023-11-19T02:44:09;100019.16;;;-9.37;100.00
73824;BME280;62154;54.914;73.444;2023-11-19T02:46:36;100069.28;;;-9.10;100.00
73824;BME280;62154;54.914;73.444;2023-11-19T02:49:04;100077.34;;;-9.10;100.00
73824;BME280;62154;54.914;73.444;2023-11-19T02:51:32;100095.28;;;-9.10;100.00
73824;BME280;62154;54.914;73.444;2023-11-19T02:54:00;100101.63;;;-9.11;100.00
73824;BME280;62154;54.914;73.444;2023-11-19T02:56:27;100101.91;;;-9.16;100.00
73824;BME280;62154;54.914;73.444;2023-11-19T02:58:56;100103.66;;;-9.15;100.00
73824;BME280;62154;54.914;73.444;2023-11-19T03:01:27;100118.41;;;-9.08;100.00
73824;BME280;62154;54.914;73.444;2023-11-19T03:03:58;100060.47;;;-9.39;100.00
73824;BME280;62154;54.914;73.444;2023-11-19T03:06:25;100119.88;;;-9.16;100.00
73824;BME280;62154;54.914;73.444;2023-11-19T03:08:54;100130.38;;;-9.13;100.00
73824;BME280;62154;54.914;73.444;2023-11-19T03:11:22;100137.19;;;-9.08;100.00
73824;BME280;62154;54.914;73.444;2023-11-19T03:13:52;100145.44;;;-9.11;100.00
73824;BME280;62154;54.914;73.444;2023-11-19T03:16:19;100148.50;;;-9.03;100.00
73824;BME280;62154;54.914;73.444;2023-11-19T03:18:47;100161.81;;;-9.01;100.00
73824;BME280;62154;54.914;73.444;2023-11-19T03:21:14;100177.84;;;-8.99;100.00
73824;BME280;62154;54.914;73.444;2023-11-19T03:23:41;100186.84;;;-9.01;100.00
73824;BME280;62154;54.914;73.444;2023-11-19T03:26:13;100206.44;;;-8.98;100.00
73824;BME280;62154;54.914;73.444;2023-11-19T03:28:40;100207.19;;;-8.96;100.00
73824;BME280;62154;54.914;73.444;2023-11-19T03:31:07;100220.63;;;-8.96;100.00
73824;BME280;62154;54.914;73.444;2023-11-19T03:33:35;100180.00;;;-9.19;100.00
73824;BME280;62154;54.914;73.444;2023-11-19T03:36:05;100221.47;;;-8.96;100.00
73824;BME280;62154;54.914;73.444;2023-11-19T03:38:33;100235.38;;;-8.89;100.00
73824;BME280;62154;54.914;73.444;2023-11-19T03:41:00;100246.91;;;-8.87;100.00
73824;BME280;62154;54.914;73.444;2023-11-19T03:43:28;100255.91;;;-8.88;100.00
73824;BME280;62154;54.914;73.444;2023-11-19T03:45:55;100255.91;;;-8.88;100.00
73824;BME280;62154;54.914;73.444;2023-11-19T03:48:23;100269.91;;;-8.83;100.00
73824;BME280;62154;54.914;73.444;2023-11-19T03:50:50;100280.47;;;-8.80;100.00
73824;BME280;62154;54.914;73.444;2023-11-19T03:53:19;100284.69;;;-8.76;100.00
73824;BME280;62154;54.914;73.444;2023-11-19T03:55:46;100294.59;;;-8.76;100.00
73824;BME280;62154;54.914;73.444;2023-11-19T03:58:13;100305.41;;;-8.78;100.00
73824;BME280;62154;54.914;73.444;2023-11-19T04:00:41;100324.78;;;-8.73;100.00
73824;BME280;62154;54.914;73.444;2023-11-19T04:03:08;100300.03;;;-8.78;100.00
73824;BME280;62154;54.914;73.444;2023-11-19T04:05:35;100274.75;;;-9.03;100.00
73824;BME280;62154;54.914;73.444;2023-11-19T04:08:02;100280.69;;;-8.97;100.00
73824;BME280;62154;54.914;73.444;2023-11-19T04:10:30;100296.41;;;-9.06;100.00
73824;BME280;62154;54.914;73.444;2023-11-19T04:12:57;100345.44;;;-8.73;100.00
73824;BME280;62154;54.914;73.444;2023-11-19T04:15:24;100360.22;;;-8.66;100.00
73824;BME280;62154;54.914;73.444;2023-11-19T04:17:52;100364.44;;;-8.62;100.00
73824;BME280;62154;54.914;73.444;2023-11-19T04:20:19;100381.34;;;-8.60;100.00
73824;BME280;62154;54.914;73.444;2023-11-19T04:22:47;100366.91;;;-8.59;100.00
73824;BME280;62154;54.914;73.444;2023-11-19T04:25:14;100370.66;;;-8.61;100.00
73824;BME280;62154;54.914;73.444;2023-11-19T04:27:42;100318.69;;;-9.04;100.00
73824;BME280;62154;54.914;73.444;2023-11-19T04:30:09;100386.59;;;-8.73;100.00
73824;BME280;62154;54.914;73.444;2023-11-19T04:32:38;100384.50;;;-8.67;100.00
73824;BME280;62154;54.914;73.444;2023-11-19T04:35:06;100400.44;;;-8.64;100.00
73824;BME280;62154;54.914;73.444;2023-11-19T04:37:34;100415.50;;;-8.62;100.00
73824;BME280;62154;54.914;73.444;2023-11-19T04:40:02;100404.97;;;-8.65;100.00
73824;BME280;62154;54.914;73.444;2023-11-19T04:42:33;100416.75;;;-8.53;100.00
73824;BME280;62154;54.914;73.444;2023-11-19T04:45:00;100372.41;;;-8.75;100.00
73824;BME280;62154;54.914;73.444;2023-11-19T04:47:31;100419.91;;;-8.46;100.00
73824;BME280;62154;54.914;73.444;2023-11-19T04:49:59;100430.53;;;-8.45;100.00
73824;BME280;62154;54.914;73.444;2023-11-19T04:52:26;100441.09;;;-8.42;100.00
73824;BME280;62154;54.914;73.444;2023-11-19T04:54:53;100446.28;;;-8.39;100.00
73824;BME280;62154;54.914;73.444;2023-11-19T04:57:21;100422.81;;;-8.49;100.00
73824;BME280;62154;54.914;73.444;2023-11-19T04:59:49;100443.53;;;-8.37;100.00
73824;BME280;62154;54.914;73.444;2023-11-19T05:02:16;100456.47;;;-8.29;100.00
73824;BME280;62154;54.914;73.444;2023-11-19T05:04:43;100460.69;;;-8.25;100.00
73824;BME280;62154;54.914;73.444;2023-11-19T05:07:11;100464.50;;;-8.15;100.00
73824;BME280;62154;54.914;73.444;2023-11-19T05:09:39;100467.66;;;-8.08;100.00
73824;BME280;62154;54.914;73.444;2023-11-19T05:12:06;100473.72;;;-8.05;100.00
73824;BME280;62154;54.914;73.444;2023-11-19T05:14:36;100472.75;;;-8.04;100.00
73824;BME280;62154;54.914;73.444;2023-11-19T05:17:04;100475.34;;;-8.02;100.00
73824;BME280;62154;54.914;73.444;2023-11-19T05:19:31;100485.63;;;-7.94;100.00
73824;BME280;62154;54.914;73.444;2023-11-19T05:21:58;100495.88;;;-7.87;100.00
73824;BME280;62154;54.914;73.444;2023-11-19T05:24:26;100522.91;;;-7.88;100.00
73824;BME280;62154;54.914;73.444;2023-11-19T05:26:53;100508.03;;;-7.94;100.00
73824;BME280;62154;54.914;73.444;2023-11-19T05:29:20;100515.72;;;-7.88;100.00
73824;BME280;62154;54.914;73.444;2023-11-19T05:31:47;100520.03;;;-7.85;100.00
73824;BME280;62154;54.914;73.444;2023-11-19T05:34:14;100483.91;;;-8.10;100.00
73824;BME280;62154;54.914;73.444;2023-11-19T05:36:42;100473.38;;;-8.13;100.00
73824;BME280;62154;54.914;73.444;2023-11-19T05:39:10;100529.84;;;-7.84;100.00
73824;BME280;62154;54.914;73.444;2023-11-19T05:41:40;100529.06;;;-7.86;100.00
73824;BME280;62154;54.914;73.444;2023-11-19T05:44:07;100538.16;;;-7.74;100.00
73824;BME280;62154;54.914;73.444;2023-11-19T05:46:40;100538.94;;;-7.72;100.00
73824;BME280;62154;54.914;73.444;2023-11-19T05:49:10;100489.69;;;-8.01;100.00
73824;BME280;62154;54.914;73.444;2023-11-19T05:51:38;100540.69;;;-7.71;100.00
73824;BME280;62154;54.914;73.444;2023-11-19T05:54:08;100541.91;;;-7.77;100.00
73824;BME280;62154;54.914;73.444;2023-11-19T05:56:35;100512.06;;;-8.01;100.00
73824;BME280;62154;54.914;73.444;2023-11-19T05:59:02;100568.75;;;-7.75;100.00
73824;BME280;62154;54.914;73.444;2023-11-19T06:01:34;100518.22;;;-8.13;100.00
73824;BME280;62154;54.914;73.444;2023-11-19T06:04:01;100566.75;;;-7.86;100.00
73824;BME280;62154;54.914;73.444;2023-11-19T06:06:32;100510.44;;;-8.18;100.00
73824;BME280;62154;54.914;73.444;2023-11-19T06:08:59;100586.72;;;-7.76;100.00
73824;BME280;62154;54.914;73.444;2023-11-19T06:11:28;100538.19;;;-8.03;100.00
73824;BME280;62154;54.914;73.444;2023-11-19T06:13:56;100580.50;;;-7.76;100.00
73824;BME280;62154;54.914;73.444;2023-11-19T06:16:24;100595.59;;;-7.74;100.00
73824;BME280;62154;54.914;73.444;2023-11-19T06:18:52;100536.38;;;-8.03;100.00
73824;BME280;62154;54.914;73.444;2023-11-19T06:21:20;100598.75;;;-7.67;100.00
73824;BME280;62154;54.914;73.444;2023-11-19T06:23:47;100553.88;;;-7.95;100.00
73824;BME280;62154;54.914;73.444;2023-11-19T06:26:15;100610.94;;;-7.61;100.00
73824;BME280;62154;54.914;73.444;2023-11-19T06:28:43;100611.13;;;-7.64;100.00
73824;BME280;62154;54.914;73.444;2023-11-19T06:31:11;100628.66;;;-7.57;100.00
73824;BME280;62154;54.914;73.444;2023-11-19T06:33:38;100626.69;;;-7.55;100.00
73824;BME280;62154;54.914;73.444;2023-11-19T06:36:06;100631.34;;;-7.57;100.00
73824;BME280;62154;54.914;73.444;2023-11-19T06:38:34;100640.38;;;-7.58;100.00
73824;BME280;62154;54.914;73.444;2023-11-19T06:41:01;100591.06;;;-7.88;100.00
73824;BME280;62154;54.914;73.444;2023-11-19T06:43:32;100598.84;;;-7.83;100.00
73824;BME280;62154;54.914;73.444;2023-11-19T06:46:01;100573.78;;;-7.98;100.00
73824;BME280;62154;54.914;73.444;2023-11-19T06:48:28;100658.91;;;-7.39;100.00
73824;BME280;62154;54.914;73.444;2023-11-19T06:50:56;100667.56;;;-7.34;100.00
73824;BME280;62154;54.914;73.444;2023-11-19T06:53:23;100626.69;;;-7.55;100.00
73824;BME280;62154;54.914;73.444;2023-11-19T06:55:51;100663.59;;;-7.28;100.00
73824;BME280;62154;54.914;73.444;2023-11-19T06:58:19;100617.66;;;-7.54;100.00
73824;BME280;62154;54.914;73.444;2023-11-19T07:00:46;100673.91;;;-7.21;100.00
73824;BME280;62154;54.914;73.444;2023-11-19T07:03:15;100634.28;;;-7.47;100.00
73824;BME280;62154;54.914;73.444;2023-11-19T07:05:51;100683.06;;;-7.23;100.00
73824;BME280;62154;54.914;73.444;2023-11-19T07:08:19;100698.25;;;-7.22;100.00
73824;BME280;62154;54.914;73.444;2023-11-19T07:10:46;100660.16;;;-7.45;100.00
73824;BME280;62154;54.914;73.444;2023-11-19T07:13:14;100707.19;;;-7.36;100.00
73824;BME280;62154;54.914;73.444;2023-11-19T07:15:42;100698.47;;;-7.40;100.00
73824;BME280;62154;54.914;73.444;2023-11-19T07:18:09;100699.59;;;-7.44;100.00
73824;BME280;62154;54.914;73.444;2023-11-19T07:20:39;100697.41;;;-7.51;100.00
73824;BME280;62154;54.914;73.444;2023-11-19T07:23:06;100728.06;;;-7.54;100.00
73824;BME280;62154;54.914;73.444;2023-11-19T07:25:35;100658.53;;;-7.91;100.00
73824;BME280;62154;54.914;73.444;2023-11-19T07:28:03;100711.63;;;-7.64;100.00
73824;BME280;62154;54.914;73.444;2023-11-19T07:30:31;100717.47;;;-7.72;100.00
73824;BME280;62154;54.914;73.444;2023-11-19T07:32:59;100712.66;;;-7.81;100.00
73824;BME280;62154;54.914;73.444;2023-11-19T07:35:26;100721.91;;;-7.85;100.00
73824;BME280;62154;54.914;73.444;2023-11-19T07:37:57;100669.38;;;-8.07;100.00
73824;BME280;62154;54.914;73.444;2023-11-19T07:40:24;100711.97;;;-7.84;100.00
73824;BME280;62154;54.914;73.444;2023-11-19T07:42:52;100692.94;;;-7.96;100.00
73824;BME280;62154;54.914;73.444;2023-11-19T07:45:19;100736.31;;;-7.72;100.00
73824;BME280;62154;54.914;73.444;2023-11-19T07:47:46;100730.19;;;-7.74;100.00
73824;BME280;62154;54.914;73.444;2023-11-19T07:50:14;100749.72;;;-7.70;100.00
73824;BME280;62154;54.914;73.444;2023-11-19T07:52:43;100760.38;;;-7.68;100.00
73824;BME280;62154;54.914;73.444;2023-11-19T07:55:11;100742.84;;;-7.76;100.00
73824;BME280;62154;54.914;73.444;2023-11-19T07:57:39;100758.81;;;-7.73;100.00
73824;BME280;62154;54.914;73.444;2023-11-19T08:00:06;100759.78;;;-7.74;100.00
73824;BME280;62154;54.914;73.444;2023-11-19T08:02:39;100748.97;;;-7.88;100.00
73824;BME280;62154;54.914;73.444;2023-11-19T08:05:07;100761.81;;;-7.77;100.00
73824;BME280;62154;54.914;73.444;2023-11-19T08:07:34;100763.44;;;-7.75;100.00
73824;BME280;62154;54.914;73.444;2023-11-19T08:10:02;100754.94;;;-7.83;100.00
73824;BME280;62154;54.914;73.444;2023-11-19T08:12:30;100738.00;;;-7.99;100.00
73824;BME280;62154;54.914;73.444;2023-11-19T08:14:57;100781.41;;;-7.75;100.00
73824;BME280;62154;54.914;73.444;2023-11-19T08:17:25;100795.47;;;-7.70;100.00
73824;BME280;62154;54.914;73.444;2023-11-19T08:19:52;100744.31;;;-8.00;100.00
73824;BME280;62154;54.914;73.444;2023-11-19T08:22:20;100799.81;;;-7.67;100.00
73824;BME280;62154;54.914;73.444;2023-11-19T08:24:49;100796.44;;;-7.71;100.00
73824;BME280;62154;54.914;73.444;2023-11-19T08:27:16;100800.88;;;-7.70;100.00
73824;BME280;62154;54.914;73.444;2023-11-19T08:29:44;100798.25;;;-7.72;100.00
73824;BME280;62154;54.914;73.444;2023-11-19T08:32:11;100788.72;;;-7.77;100.00
73824;BME280;62154;54.914;73.444;2023-11-19T08:34:41;100751.75;;;-8.04;100.00
73824;BME280;62154;54.914;73.444;2023-11-19T08:37:11;100794.00;;;-7.76;100.00
73824;BME280;62154;54.914;73.444;2023-11-19T08:39:41;100751.38;;;-7.98;100.00
73824;BME280;62154;54.914;73.444;2023-11-19T08:42:12;100724.66;;;-8.17;100.00
73824;BME280;62154;54.914;73.444;2023-11-19T08:44:39;100818.56;;;-7.66;100.00
73824;BME280;62154;54.914;73.444;2023-11-19T08:47:11;100815.09;;;-7.68;100.00
73824;BME280;62154;54.914;73.444;2023-11-19T08:49:39;100823.25;;;-7.70;100.00
73824;BME280;62154;54.914;73.444;2023-11-19T08:52:07;100823.41;;;-7.73;100.00
73824;BME280;62154;54.914;73.444;2023-11-19T08:54:34;100810.63;;;-7.83;100.00
73824;BME280;62154;54.914;73.444;2023-11-19T08:57:02;100837.19;;;-7.77;100.00
73824;BME280;62154;54.914;73.444;2023-11-19T08:59:30;100833.53;;;-7.76;100.00
73824;BME280;62154;54.914;73.444;2023-11-19T09:01:58;100847.75;;;-7.74;100.00
73824;BME280;62154;54.914;73.444;2023-11-19T09:04:26;100846.69;;;-7.72;100.00
73824;BME280;62154;54.914;73.444;2023-11-19T09:06:54;100795.75;;;-8.05;100.00
73824;BME280;62154;54.914;73.444;2023-11-19T09:09:22;100843.31;;;-7.75;100.00
73824;BME280;62154;54.914;73.444;2023-11-19T09:11:49;100853.31;;;-7.77;100.00
73824;BME280;62154;54.914;73.444;2023-11-19T09:14:17;100866.69;;;-7.76;100.00
73824;BME280;62154;54.914;73.444;2023-11-19T09:16:45;100832.88;;;-7.96;100.00
73824;BME280;62154;54.914;73.444;2023-11-19T09:19:12;100847.38;;;-7.98;100.00
73824;BME280;62154;54.914;73.444;2023-11-19T09:21:39;100872.09;;;-7.92;100.00
73824;BME280;62154;54.914;73.444;2023-11-19T09:24:10;100882.19;;;-7.95;100.00
73824;BME280;62154;54.914;73.444;2023-11-19T09:26:37;100870.03;;;-8.03;100.00
73824;BME280;62154;54.914;73.444;2023-11-19T09:29:08;100881.50;;;-7.99;100.00
73824;BME280;62154;54.914;73.444;2023-11-19T09:31:37;100890.31;;;-7.97;100.00
73824;BME280;62154;54.914;73.444;2023-11-19T09:34:05;100895.09;;;-8.02;100.00
73824;BME280;62154;54.914;73.444;2023-11-19T09:36:33;100890.00;;;-8.07;100.00
73824;BME280;62154;54.914;73.444;2023-11-19T09:39:03;100847.66;;;-8.35;100.00
73824;BME280;62154;54.914;73.444;2023-11-19T09:41:34;100897.72;;;-8.00;100.00
73824;BME280;62154;54.914;73.444;2023-11-19T09:44:02;100902.34;;;-8.03;100.00
73824;BME280;62154;54.914;73.444;2023-11-19T09:46:30;100895.41;;;-8.07;100.00
73824;BME280;62154;54.914;73.444;2023-11-19T09:48:57;100857.28;;;-8.31;100.00
73824;BME280;62154;54.914;73.444;2023-11-19T09:51:26;100908.66;;;-8.04;100.00
73824;BME280;62154;54.914;73.444;2023-11-19T09:53:54;100912.41;;;-8.06;100.00
73824;BME280;62154;54.914;73.444;2023-11-19T09:56:23;100913.63;;;-8.12;100.00
73824;BME280;62154;54.914;73.444;2023-11-19T09:58:56;100874.59;;;-8.51;100.00
73824;BME280;62154;54.914;73.444;2023-11-19T10:01:25;100933.28;;;-8.27;100.00
73824;BME280;62154;54.914;73.444;2023-11-19T10:03:55;100945.00;;;-8.28;100.00
73824;BME280;62154;54.914;73.444;2023-11-19T10:06:24;100814.06;;;-9.08;100.00
73824;BME280;62154;54.914;73.444;2023-11-19T10:08:54;100897.47;;;-8.60;100.00
73824;BME280;62154;54.914;73.444;2023-11-19T10:11:22;100951.06;;;-8.25;100.00
73824;BME280;62154;54.914;73.444;2023-11-19T10:13:49;100954.81;;;-8.27;100.00
73824;BME280;62154;54.914;73.444;2023-11-19T10:16:18;100960.38;;;-8.30;100.00
73824;BME280;62154;54.914;73.444;2023-11-19T10:18:49;100959.44;;;-8.29;100.00
73824;BME280;62154;54.914;73.444;2023-11-19T10:21:19;100962.25;;;-8.32;100.00
73824;BME280;62154;54.914;73.444;2023-11-19T10:23:57;100959.38;;;-8.45;100.00
73824;BME280;62154;54.914;73.444;2023-11-19T10:26:27;100984.13;;;-8.39;100.00
73824;BME280;62154;54.914;73.444;2023-11-19T10:28:56;100987.94;;;-8.43;100.00
73824;BME280;62154;54.914;73.444;2023-11-19T10:31:23;100989.75;;;-8.43;100.00
73824;BME280;62154;54.914;73.444;2023-11-19T10:33:55;100936.81;;;-8.75;100.00
73824;BME280;62154;54.914;73.444;2023-11-19T10:36:37;100995.31;;;-8.46;100.00
73824;BME280;62154;54.914;73.444;2023-11-19T10:39:06;101007.44;;;-8.55;100.00
73824;BME280;62154;54.914;73.444;2023-11-19T10:41:33;101006.72;;;-8.59;100.00
73824;BME280;62154;54.914;73.444;2023-11-19T10:44:01;100988.16;;;-8.63;100.00
73824;BME280;62154;54.914;73.444;2023-11-19T10:46:41;101003.97;;;-8.57;100.00
73824;BME280;62154;54.914;73.444;2023-11-19T10:49:13;101004.13;;;-8.60;100.00
73824;BME280;62154;54.914;73.444;2023-11-19T10:51:45;100972.16;;;-8.82;100.00
73824;BME280;62154;54.914;73.444;2023-11-19T10:54:18;100970.50;;;-8.85;100.00
73824;BME280;62154;54.914;73.444;2023-11-19T10:56:51;101018.50;;;-8.61;100.00
73824;BME280;62154;54.914;73.444;2023-11-19T10:59:26;101012.47;;;-8.65;100.00
73824;BME280;62154;54.914;73.444;2023-11-19T11:01:56;101024.06;;;-8.64;100.00
73824;BME280;62154;54.914;73.444;2023-11-19T11:04:24;101015.06;;;-8.63;100.00
73824;BME280;62154;54.914;73.444;2023-11-19T11:06:55;101006.50;;;-8.72;100.00
73824;BME280;62154;54.914;73.444;2023-11-19T11:09:27;101041.06;;;-8.64;100.00
73824;BME280;62154;54.914;73.444;2023-11-19T11:11:55;101024.25;;;-8.67;100.00
73824;BME280;62154;54.914;73.444;2023-11-19T11:14:24;101012.38;;;-8.81;100.00
73824;BME280;62154;54.914;73.444;2023-11-19T11:16:53;101021.78;;;-8.72;100.00
73824;BME280;62154;54.914;73.444;2023-11-19T11:19:21;101035.75;;;-8.65;100.00
73824;BME280;62154;54.914;73.444;2023-11-19T11:21:51;101037.59;;;-8.66;100.00
73824;BME280;62154;54.914;73.444;2023-11-19T11:30:29;101049.84;;;-8.78;100.00
73824;BME280;62154;54.914;73.444;2023-11-19T11:36:20;101056.50;;;-8.85;100.00
73824;BME280;62154;54.914;73.444;2023-11-19T11:38:50;101044.22;;;-8.91;100.00
73824;BME280;62154;54.914;73.444;2023-11-19T11:41:25;101030.25;;;-8.97;100.00
73824;BME280;62154;54.914;73.444;2023-11-19T11:43:53;101054.25;;;-8.94;100.00
73824;BME280;62154;54.914;73.444;2023-11-19T11:49:06;101062.19;;;-8.91;100.00
73824;BME280;62154;54.914;73.444;2023-11-19T11:54:26;101060.66;;;-8.97;100.00
73824;BME280;62154;54.914;73.444;2023-11-19T11:57:13;101073.88;;;-8.92;100.00
73824;BME280;62154;54.914;73.444;2023-11-19T12:02:13;101077.19;;;-8.87;100.00
73824;BME280;62154;54.914;73.444;2023-11-19T12:04:42;101076.63;;;-8.94;100.00
73824;BME280;62154;54.914;73.444;2023-11-19T12:07:14;100991.34;;;-9.43;100.00
73824;BME280;62154;54.914;73.444;2023-11-19T12:09:48;101069.44;;;-8.93;100.00
73824;BME280;62154;54.914;73.444;2023-11-19T12:12:26;101029.59;;;-9.20;100.00
73824;BME280;62154;54.914;73.444;2023-11-19T12:20:04;101076.84;;;-8.98;100.00
73824;BME280;62154;54.914;73.444;2023-11-19T12:22:41;101091.88;;;-8.94;100.00
73824;BME280;62154;54.914;73.444;2023-11-19T12:25:10;101080.75;;;-9.04;100.00
73824;BME280;62154;54.914;73.444;2023-11-19T12:27:43;101095.53;;;-8.95;100.00
73824;BME280;62154;54.914;73.444;2023-11-19T12:30:12;101058.34;;;-9.22;100.00
73824;BME280;62154;54.914;73.444;2023-11-19T12:32:44;101101.25;;;-9.03;100.00
73824;BME280;62154;54.914;73.444;2023-11-19T12:35:12;101062.13;;;-9.26;100.00
73824;BME280;62154;54.914;73.444;2023-11-19T12:37:47;101064.00;;;-9.28;100.00
73824;BME280;62154;54.914;73.444;2023-11-19T12:40:25;101107.81;;;-9.09;100.00
73824;BME280;62154;54.914;73.444;2023-11-19T12:42:53;101116.91;;;-9.11;100.00
73824;BME280;62154;54.914;73.444;2023-11-19T12:45:21;101117.94;;;-9.14;100.00
73824;BME280;62154;54.914;73.444;2023-11-19T12:48:04;101118.13;;;-9.19;100.00
73824;BME280;62154;54.914;73.444;2023-11-19T12:50:51;101127.22;;;-9.21;100.00
73824;BME280;62154;54.914;73.444;2023-11-19T12:53:21;101122.94;;;-9.25;100.00
73824;BME280;62154;54.914;73.444;2023-11-19T12:55:49;101123.88;;;-9.26;100.00
73824;BME280;62154;54.914;73.444;2023-11-19T12:58:33;101079.09;;;-9.62;100.00
73824;BME280;62154;54.914;73.444;2023-11-19T13:01:06;101128.78;;;-9.35;100.00
73824;BME280;62154;54.914;73.444;2023-11-19T13:03:37;101136.03;;;-9.37;100.00